Southworth, WA (98386)

3:29 AM PDT on July 23, 2016 (GMT -0700)
Colvos | | Change Station

Elev 164 ft 47.47 °N, 122.49 °W | Updated 3 minutes ago

Overcast
Overcast
58.7 °F
Feels Like 58.7 °F
N
1.0
Wind Variable Wind from South
Gusts 1.0 mph

Today
High -- | Low -- °F
--% Chance of Precip.
Yesterday
High -- | Low -- °F
Precip. -- in
Pressure 30.26 in
Visibility 10.0 miles
Clouds Overcast 1600 ft
Dew Point 56 °F
Humidity 89%
Rainfall 0.00 in
Snow Depth Not available.
5:37 AM 8:54 PM
Waning Gibbous, 86% visible
METAR KBFI 230953Z AUTO 20003KT 10SM OVC016 16/12 A3026 RMK AO2 SLP247 T01560117
Pressure 30.26 in
Visibility 10.0 miles
Clouds Overcast 1600 ft
Dew Point 56 °F
Humidity 89%
Rainfall 0.00 in
Snow Depth Not available.
5:37 AM 8:54 PM
Waning Gibbous, 86% visible
METAR KBFI 230953Z AUTO 20003KT 10SM OVC016 16/12 A3026 RMK AO2 SLP247 T01560117

10-Day Weather Forecast

Almanac

Astronomy

Jul. 23, 2016 Rise Set
Actual Time
Civil Twilight
Nautical Twilight
Astronomical Twilight
Moon
Length of Visible Light
Length of Day
Tomorrow will be .
, % of the Moon is Illuminated

Today's Extremes

State Highs State Lows

Community

WunderPhotos

Upload Photos

1,926,791 photos uploaded!

WunderBlog® & News

Nearby

Air Quality

  Air Quality AQ Index Pollutant
Not available.

Snow Depth

Station Depth Elevation

Earthquake Activity

City Distance Mag. Time & Date
Minimum magnitude displayed is 2.5.

Coastal Water Temperatures

Place Temperature

Stations

Nearby Weather Stations

Station Location Temp. Windchill Dew Point Humidity Wind Precip. Elev Updated Type
                   

Watches & Warnings

There are currently no watches in effect.